sensor_id;sensor_type;location;lat;lon;timestamp;pressure;altitude;pressure_sealevel;temperature;humidity
78309;BME280;75657;42.022;21.356;2024-01-16T00:01:59;97442.34;;;0.17;75.22
78309;BME280;75657;42.022;21.356;2024-01-16T00:04:25;97436.84;;;0.13;76.31
78309;BME280;75657;42.022;21.356;2024-01-16T00:06:52;97449.41;;;0.16;76.25
78309;BME280;75657;42.022;21.356;2024-01-16T00:09:18;97453.88;;;0.16;76.53
78309;BME280;75657;42.022;21.356;2024-01-16T00:11:46;97452.81;;;0.17;76.40
78309;BME280;75657;42.022;21.356;2024-01-16T00:14:11;97440.50;;;0.17;76.02
78309;BME280;75657;42.022;21.356;2024-01-16T00:16:43;97446.53;;;0.18;76.29
78309;BME280;75657;42.022;21.356;2024-01-16T00:19:10;97450.47;;;0.21;76.11
78309;BME280;75657;42.022;21.356;2024-01-16T00:21:43;97450.97;;;0.17;76.53
78309;BME280;75657;42.022;21.356;2024-01-16T00:24:10;97461.19;;;0.04;76.52
78309;BME280;75657;42.022;21.356;2024-01-16T00:26:36;97457.00;;;0.03;76.45
78309;BME280;75657;42.022;21.356;2024-01-16T00:29:02;97462.22;;;-0.03;76.59
78309;BME280;75657;42.022;21.356;2024-01-16T00:31:27;97453.59;;;-0.03;76.83
78309;BME280;75657;42.022;21.356;2024-01-16T00:33:53;97458.81;;;0.02;76.60
78309;BME280;75657;42.022;21.356;2024-01-16T00:36:18;97455.41;;;0.02;76.73
78309;BME280;75657;42.022;21.356;2024-01-16T00:38:44;97454.38;;;0.08;77.03
78309;BME280;75657;42.022;21.356;2024-01-16T00:41:10;97459.63;;;0.08;77.21
78309;BME280;75657;42.022;21.356;2024-01-16T00:43:36;97462.50;;;0.06;77.00
78309;BME280;75657;42.022;21.356;2024-01-16T00:46:01;97470.06;;;-0.03;77.01
78309;BME280;75657;42.022;21.356;2024-01-16T00:48:27;97469.03;;;-0.02;76.96
78309;BME280;75657;42.022;21.356;2024-01-16T00:50:52;97479.50;;;0.04;77.11
78309;BME280;75657;42.022;21.356;2024-01-16T00:53:18;97480.03;;;0.06;77.41
78309;BME280;75657;42.022;21.356;2024-01-16T00:55:44;97478.47;;;0.10;76.88
78309;BME280;75657;42.022;21.356;2024-01-16T00:58:15;97492.31;;;0.15;77.19
78309;BME280;75657;42.022;21.356;2024-01-16T01:00:41;97497.56;;;0.15;77.54
78309;BME280;75657;42.022;21.356;2024-01-16T01:03:06;97489.97;;;0.19;77.15
78309;BME280;75657;42.022;21.356;2024-01-16T01:05:33;97498.91;;;0.23;77.28
78309;BME280;75657;42.022;21.356;2024-01-16T01:08:01;97501.78;;;0.27;77.48
78309;BME280;75657;42.022;21.356;2024-01-16T01:10:26;97506.75;;;0.33;77.28
78309;BME280;75657;42.022;21.356;2024-01-16T01:12:52;97508.84;;;0.36;76.60
78309;BME280;75657;42.022;21.356;2024-01-16T01:15:21;97494.97;;;0.41;77.14
78309;BME280;75657;42.022;21.356;2024-01-16T01:17:48;97502.59;;;0.48;76.93
78309;BME280;75657;42.022;21.356;2024-01-16T01:20:14;97495.75;;;0.52;76.71
78309;BME280;75657;42.022;21.356;2024-01-16T01:22:40;97488.16;;;0.55;77.14
78309;BME280;75657;42.022;21.356;2024-01-16T01:25:06;97490.00;;;0.60;76.88
78309;BME280;75657;42.022;21.356;2024-01-16T01:27:32;97495.25;;;0.65;77.10
78309;BME280;75657;42.022;21.356;2024-01-16T01:29:57;97493.41;;;0.71;77.36
78309;BME280;75657;42.022;21.356;2024-01-16T01:32:23;97492.63;;;0.75;77.64
78309;BME280;75657;42.022;21.356;2024-01-16T01:34:49;97490.78;;;0.81;77.48
78309;BME280;75657;42.022;21.356;2024-01-16T01:37:15;97493.41;;;0.86;78.35
78309;BME280;75657;42.022;21.356;2024-01-16T01:39:40;97497.84;;;0.91;78.40
78309;BME280;75657;42.022;21.356;2024-01-16T01:42:06;97502.78;;;0.98;78.80
78309;BME280;75657;42.022;21.356;2024-01-16T01:44:31;97504.63;;;1.02;78.84
78309;BME280;75657;42.022;21.356;2024-01-16T01:46:57;97499.38;;;1.02;78.78
78309;BME280;75657;42.022;21.356;2024-01-16T01:49:25;97492.31;;;0.98;79.26
78309;BME280;75657;42.022;21.356;2024-01-16T01:51:50;97495.19;;;0.96;79.26
78309;BME280;75657;42.022;21.356;2024-01-16T01:54:17;97498.38;;;0.98;79.07
78309;BME280;75657;42.022;21.356;2024-01-16T01:56:45;97496.50;;;0.99;79.55
78309;BME280;75657;42.022;21.356;2024-01-16T01:59:13;97494.41;;;0.96;79.38
78309;BME280;75657;42.022;21.356;2024-01-16T02:01:41;97496.00;;;0.91;80.30
78309;BME280;75657;42.022;21.356;2024-01-16T02:04:08;97494.94;;;0.92;80.43
78309;BME280;75657;42.022;21.356;2024-01-16T02:06:34;97512.00;;;0.95;80.59
78309;BME280;75657;42.022;21.356;2024-01-16T02:09:00;97506.22;;;0.93;80.08
78309;BME280;75657;42.022;21.356;2024-01-16T02:11:26;97494.16;;;0.92;80.11
78309;BME280;75657;42.022;21.356;2024-01-16T02:13:52;97490.78;;;0.91;80.29
78309;BME280;75657;42.022;21.356;2024-01-16T02:16:21;97492.88;;;0.94;80.02
78309;BME280;75657;42.022;21.356;2024-01-16T02:18:48;97513.28;;;0.98;80.04
78309;BME280;75657;42.022;21.356;2024-01-16T02:21:25;97505.97;;;0.89;80.71
78309;BME280;75657;42.022;21.356;2024-01-16T02:23:53;97510.16;;;0.85;80.30
78309;BME280;75657;42.022;21.356;2024-01-16T02:26:19;97498.13;;;0.79;80.66
78309;BME280;75657;42.022;21.356;2024-01-16T02:28:45;97515.13;;;0.82;80.25
78309;BME280;75657;42.022;21.356;2024-01-16T02:31:10;97515.66;;;0.84;80.64
78309;BME280;75657;42.022;21.356;2024-01-16T02:33:36;97518.81;;;0.86;80.30
78309;BME280;75657;42.022;21.356;2024-01-16T02:36:03;97504.13;;;0.90;80.72
78309;BME280;75657;42.022;21.356;2024-01-16T02:38:29;97496.25;;;0.95;80.30
78309;BME280;75657;42.022;21.356;2024-01-16T02:40:54;97514.88;;;0.99;80.41
78309;BME280;75657;42.022;21.356;2024-01-16T02:43:20;97526.63;;;1.01;80.58
78309;BME280;75657;42.022;21.356;2024-01-16T02:45:45;97518.50;;;1.03;80.37
78309;BME280;75657;42.022;21.356;2024-01-16T02:48:11;97520.63;;;1.06;80.58
78309;BME280;75657;42.022;21.356;2024-01-16T02:50:36;97520.88;;;1.09;80.46
78309;BME280;75657;42.022;21.356;2024-01-16T02:53:03;97528.22;;;1.12;80.47
78309;BME280;75657;42.022;21.356;2024-01-16T02:55:29;97508.28;;;1.11;80.58
78309;BME280;75657;42.022;21.356;2024-01-16T02:57:54;97502.25;;;1.11;80.17
78309;BME280;75657;42.022;21.356;2024-01-16T03:00:20;97500.16;;;1.13;80.09
78309;BME280;75657;42.022;21.356;2024-01-16T03:02:45;97520.88;;;1.15;80.73
78309;BME280;75657;42.022;21.356;2024-01-16T03:05:11;97508.53;;;1.15;80.33
78309;BME280;75657;42.022;21.356;2024-01-16T03:07:36;97511.16;;;1.15;80.56
78309;BME280;75657;42.022;21.356;2024-01-16T03:10:02;97513.25;;;1.13;80.22
78309;BME280;75657;42.022;21.356;2024-01-16T03:12:28;97514.84;;;1.09;80.19
78309;BME280;75657;42.022;21.356;2024-01-16T03:14:54;97525.88;;;0.96;80.94
78309;BME280;75657;42.022;21.356;2024-01-16T03:17:19;97534.81;;;0.84;81.32
78309;BME280;75657;42.022;21.356;2024-01-16T03:19:45;97538.44;;;0.78;81.25
78309;BME280;75657;42.022;21.356;2024-01-16T03:22:11;97551.81;;;0.71;81.63
78309;BME280;75657;42.022;21.356;2024-01-16T03:24:36;97547.09;;;0.58;82.10
78309;BME280;75657;42.022;21.356;2024-01-16T03:27:02;97567.78;;;0.49;82.93
78309;BME280;75657;42.022;21.356;2024-01-16T03:29:29;97574.31;;;0.52;82.23
78309;BME280;75657;42.022;21.356;2024-01-16T03:31:54;97562.56;;;0.54;81.92
78309;BME280;75657;42.022;21.356;2024-01-16T03:34:20;97570.69;;;0.58;81.71
78309;BME280;75657;42.022;21.356;2024-01-16T03:36:45;97588.75;;;0.60;81.94
78309;BME280;75657;42.022;21.356;2024-01-16T03:39:11;97583.53;;;0.60;81.72
78309;BME280;75657;42.022;21.356;2024-01-16T03:41:37;97583.53;;;0.60;81.76
78309;BME280;75657;42.022;21.356;2024-01-16T03:44:03;97594.53;;;0.62;82.31
78309;BME280;75657;42.022;21.356;2024-01-16T03:46:28;97593.44;;;0.63;81.69
78309;BME280;75657;42.022;21.356;2024-01-16T03:48:54;97596.34;;;0.66;81.68
78309;BME280;75657;42.022;21.356;2024-01-16T03:51:20;97598.69;;;0.68;81.31
78309;BME280;75657;42.022;21.356;2024-01-16T03:53:45;97598.97;;;0.71;81.25
78309;BME280;75657;42.022;21.356;2024-01-16T03:56:11;97594.53;;;0.72;81.85
78309;BME280;75657;42.022;21.356;2024-01-16T03:58:37;97597.41;;;0.75;82.18
78309;BME280;75657;42.022;21.356;2024-01-16T04:01:03;97597.16;;;0.82;82.51
78309;BME280;75657;42.022;21.356;2024-01-16T04:03:29;97607.63;;;0.87;82.55
78309;BME280;75657;42.022;21.356;2024-01-16T04:05:54;97613.41;;;0.94;83.14
78309;BME280;75657;42.022;21.356;2024-01-16T04:08:20;97622.84;;;1.01;82.79
78309;BME280;75657;42.022;21.356;2024-01-16T04:10:45;97625.72;;;1.04;83.92
78309;BME280;75657;42.022;21.356;2024-01-16T04:13:11;97630.97;;;1.09;84.04
78309;BME280;75657;42.022;21.356;2024-01-16T04:15:39;97643.28;;;1.14;84.13
78309;BME280;75657;42.022;21.356;2024-01-16T04:18:06;97638.56;;;1.16;84.64
78309;BME280;75657;42.022;21.356;2024-01-16T04:20:32;97648.28;;;1.21;85.25
78309;BME280;75657;42.022;21.356;2024-01-16T04:22:57;97648.53;;;1.24;85.37
78309;BME280;75657;42.022;21.356;2024-01-16T04:25:25;97661.66;;;1.24;84.68
78309;BME280;75657;42.022;21.356;2024-01-16T04:27:51;97660.59;;;1.25;84.53
78309;BME280;75657;42.022;21.356;2024-01-16T04:30:16;97665.31;;;1.23;83.98
78309;BME280;75657;42.022;21.356;2024-01-16T04:32:42;97689.94;;;1.22;83.83
78309;BME280;75657;42.022;21.356;2024-01-16T04:35:07;97698.34;;;1.14;83.82
78309;BME280;75657;42.022;21.356;2024-01-16T04:37:33;97697.53;;;1.13;83.03
78309;BME280;75657;42.022;21.356;2024-01-16T04:39:58;97695.97;;;1.12;83.23
78309;BME280;75657;42.022;21.356;2024-01-16T04:42:25;97720.84;;;1.05;82.79
78309;BME280;75657;42.022;21.356;2024-01-16T04:44:53;97729.72;;;0.83;82.66
78309;BME280;75657;42.022;21.356;2024-01-16T04:47:19;97734.69;;;0.74;82.78
78309;BME280;75657;42.022;21.356;2024-01-16T04:49:45;97735.44;;;0.70;82.94
78309;BME280;75657;42.022;21.356;2024-01-16T04:52:10;97744.88;;;0.66;82.66
78309;BME280;75657;42.022;21.356;2024-01-16T04:54:35;97755.59;;;0.64;83.36
78309;BME280;75657;42.022;21.356;2024-01-16T04:57:01;97756.91;;;0.62;83.14
78309;BME280;75657;42.022;21.356;2024-01-16T04:59:26;97765.53;;;0.57;83.29
78309;BME280;75657;42.022;21.356;2024-01-16T05:01:52;97776.75;;;0.52;83.04
78309;BME280;75657;42.022;21.356;2024-01-16T05:04:17;97787.78;;;0.54;83.36
78309;BME280;75657;42.022;21.356;2024-01-16T05:06:43;97797.75;;;0.57;83.19
78309;BME280;75657;42.022;21.356;2024-01-16T05:09:08;97801.69;;;0.60;82.98
78309;BME280;75657;42.022;21.356;2024-01-16T05:11:35;97800.38;;;0.63;82.85
78309;BME280;75657;42.022;21.356;2024-01-16T05:14:00;97807.75;;;0.66;83.03
78309;BME280;75657;42.022;21.356;2024-01-16T05:16:26;97806.47;;;0.68;82.25
78309;BME280;75657;42.022;21.356;2024-01-16T05:18:52;97816.66;;;0.70;82.08
78309;BME280;75657;42.022;21.356;2024-01-16T05:21:18;97805.41;;;0.69;82.46
78309;BME280;75657;42.022;21.356;2024-01-16T05:23:44;97813.78;;;0.71;82.42
78309;BME280;75657;42.022;21.356;2024-01-16T05:26:09;97824.00;;;0.73;82.29
78309;BME280;75657;42.022;21.356;2024-01-16T05:28:34;97841.06;;;0.75;82.06
78309;BME280;75657;42.022;21.356;2024-01-16T05:31:00;97851.03;;;0.79;82.67
78309;BME280;75657;42.022;21.356;2024-01-16T05:33:25;97859.69;;;0.79;82.90
78309;BME280;75657;42.022;21.356;2024-01-16T05:35:51;97863.38;;;0.83;82.68
78309;BME280;75657;42.022;21.356;2024-01-16T05:38:16;97863.38;;;0.83;82.05
78309;BME280;75657;42.022;21.356;2024-01-16T05:40:42;97863.09;;;0.80;82.01
78309;BME280;75657;42.022;21.356;2024-01-16T05:43:07;97868.56;;;0.73;82.70
78309;BME280;75657;42.022;21.356;2024-01-16T05:45:33;97880.91;;;0.78;82.88
78309;BME280;75657;42.022;21.356;2024-01-16T05:47:58;97872.75;;;0.74;82.73
78309;BME280;75657;42.022;21.356;2024-01-16T05:50:24;97878.81;;;0.80;82.59
78309;BME280;75657;42.022;21.356;2024-01-16T05:52:49;97882.78;;;0.82;82.98
78309;BME280;75657;42.022;21.356;2024-01-16T05:55:15;97895.09;;;0.87;83.14
78309;BME280;75657;42.022;21.356;2024-01-16T05:57:40;97900.34;;;0.87;83.59
78309;BME280;75657;42.022;21.356;2024-01-16T06:00:07;97914.25;;;0.92;83.31
78309;BME280;75657;42.022;21.356;2024-01-16T06:02:32;97911.66;;;0.98;83.80
78309;BME280;75657;42.022;21.356;2024-01-16T06:05:00;97933.72;;;1.02;83.13
78309;BME280;75657;42.022;21.356;2024-01-16T06:07:25;97929.78;;;1.04;83.30
78309;BME280;75657;42.022;21.356;2024-01-16T06:09:51;97940.00;;;1.06;83.24
78309;BME280;75657;42.022;21.356;2024-01-16T06:12:16;97943.69;;;1.10;83.23
78309;BME280;75657;42.022;21.356;2024-01-16T06:14:42;97950.78;;;1.09;82.39
78309;BME280;75657;42.022;21.356;2024-01-16T06:17:07;97966.75;;;1.08;82.51
78309;BME280;75657;42.022;21.356;2024-01-16T06:19:33;97976.72;;;1.06;82.65
78309;BME280;75657;42.022;21.356;2024-01-16T06:21:59;97978.84;;;1.09;83.14
78309;BME280;75657;42.022;21.356;2024-01-16T06:24:24;97987.50;;;1.15;82.88
78309;BME280;75657;42.022;21.356;2024-01-16T06:26:50;98003.53;;;1.18;82.69
78309;BME280;75657;42.022;21.356;2024-01-16T06:29:15;98011.66;;;1.22;82.68
78309;BME280;75657;42.022;21.356;2024-01-16T06:31:41;98015.38;;;1.26;82.60
78309;BME280;75657;42.022;21.356;2024-01-16T06:34:06;98020.91;;;1.29;82.88
78309;BME280;75657;42.022;21.356;2024-01-16T06:36:32;98028.50;;;1.26;83.00
78309;BME280;75657;42.022;21.356;2024-01-16T06:38:57;98030.09;;;1.32;82.82
78309;BME280;75657;42.022;21.356;2024-01-16T06:41:23;98038.75;;;1.38;83.47
78309;BME280;75657;42.022;21.356;2024-01-16T06:43:48;98045.59;;;1.39;82.81
78309;BME280;75657;42.022;21.356;2024-01-16T06:46:14;98061.59;;;1.37;83.18
78309;BME280;75657;42.022;21.356;2024-01-16T06:48:39;98065.81;;;1.38;82.67
78309;BME280;75657;42.022;21.356;2024-01-16T06:51:05;98068.72;;;1.42;82.92
78309;BME280;75657;42.022;21.356;2024-01-16T06:53:33;98064.53;;;1.46;83.05
78309;BME280;75657;42.022;21.356;2024-01-16T06:55:58;98075.59;;;1.53;83.21
78309;BME280;75657;42.022;21.356;2024-01-16T06:58:24;98092.41;;;1.62;82.74
78309;BME280;75657;42.022;21.356;2024-01-16T07:00:49;98098.25;;;1.69;82.44
78309;BME280;75657;42.022;21.356;2024-01-16T07:03:14;98097.22;;;1.76;82.63
78309;BME280;75657;42.022;21.356;2024-01-16T07:05:40;98110.91;;;1.83;82.37
78309;BME280;75657;42.022;21.356;2024-01-16T07:08:09;98119.34;;;1.90;81.78
78309;BME280;75657;42.022;21.356;2024-01-16T07:10:34;98125.38;;;1.96;81.63
78309;BME280;75657;42.022;21.356;2024-01-16T07:13:01;98121.75;;;2.02;81.51
78309;BME280;75657;42.022;21.356;2024-01-16T07:15:27;98138.06;;;2.09;81.27
78309;BME280;75657;42.022;21.356;2024-01-16T07:17:52;98137.84;;;2.16;81.13
78309;BME280;75657;42.022;21.356;2024-01-16T07:20:18;98142.59;;;2.24;80.75
78309;BME280;75657;42.022;21.356;2024-01-16T07:22:43;98141.56;;;2.30;80.03
78309;BME280;75657;42.022;21.356;2024-01-16T07:25:09;98153.44;;;2.38;79.14
78309;BME280;75657;42.022;21.356;2024-01-16T07:27:34;98155.81;;;2.50;78.28
78309;BME280;75657;42.022;21.356;2024-01-16T07:30:00;98151.91;;;2.62;76.42
78309;BME280;75657;42.022;21.356;2024-01-16T07:32:26;98151.94;;;2.68;75.91
78309;BME280;75657;42.022;21.356;2024-01-16T07:34:51;98169.81;;;2.76;75.36
78309;BME280;75657;42.022;21.356;2024-01-16T07:37:18;98174.31;;;2.80;75.11
78309;BME280;75657;42.022;21.356;2024-01-16T07:39:43;98177.44;;;2.77;74.54
78309;BME280;75657;42.022;21.356;2024-01-16T07:42:09;98180.88;;;2.78;74.28
78309;BME280;75657;42.022;21.356;2024-01-16T07:44:36;98204.25;;;2.79;73.40
78309;BME280;75657;42.022;21.356;2024-01-16T07:47:02;98201.13;;;2.82;73.32
78309;BME280;75657;42.022;21.356;2024-01-16T07:49:28;98214.28;;;2.88;73.58
78309;BME280;75657;42.022;21.356;2024-01-16T07:51:54;98213.50;;;2.92;73.22
78309;BME280;75657;42.022;21.356;2024-01-16T07:54:19;98222.44;;;2.91;72.70
78309;BME280;75657;42.022;21.356;2024-01-16T07:56:44;98212.16;;;2.90;72.44
78309;BME280;75657;42.022;21.356;2024-01-16T07:59:10;98221.66;;;2.91;72.30
78309;BME280;75657;42.022;21.356;2024-01-16T08:01:36;98241.09;;;2.90;72.46
78309;BME280;75657;42.022;21.356;2024-01-16T08:04:03;98249.78;;;2.90;72.04
78309;BME280;75657;42.022;21.356;2024-01-16T08:06:29;98262.38;;;2.88;71.92
78309;BME280;75657;42.022;21.356;2024-01-16T08:08:54;98269.25;;;2.89;71.17
78309;BME280;75657;42.022;21.356;2024-01-16T08:11:20;98280.78;;;2.83;70.92
78309;BME280;75657;42.022;21.356;2024-01-16T08:13:45;98281.59;;;2.83;71.22
78309;BME280;75657;42.022;21.356;2024-01-16T08:16:11;98294.97;;;2.82;71.50
78309;BME280;75657;42.022;21.356;2024-01-16T08:18:36;98301.81;;;2.83;71.37
78309;BME280;75657;42.022;21.356;2024-01-16T08:21:02;98315.22;;;2.81;71.41
78309;BME280;75657;42.022;21.356;2024-01-16T08:23:27;98326.28;;;2.83;71.05
78309;BME280;75657;42.022;21.356;2024-01-16T08:25:53;98326.03;;;2.85;70.76
78309;BME280;75657;42.022;21.356;2024-01-16T08:28:18;98327.09;;;2.89;70.54
78309;BME280;75657;42.022;21.356;2024-01-16T08:30:44;98328.69;;;2.95;69.82
78309;BME280;75657;42.022;21.356;2024-01-16T08:33:11;98340.03;;;3.01;69.58
78309;BME280;75657;42.022;21.356;2024-01-16T08:35:37;98332.66;;;3.03;69.48
78309;BME280;75657;42.022;21.356;2024-01-16T08:38:02;98341.09;;;3.05;69.25
78309;BME280;75657;42.022;21.356;2024-01-16T08:40:28;98337.69;;;3.10;69.01
78309;BME280;75657;42.022;21.356;2024-01-16T08:42:53;98351.91;;;3.14;69.51
78309;BME280;75657;42.022;21.356;2024-01-16T08:45:20;98357.94;;;3.14;69.35
78309;BME280;75657;42.022;21.356;2024-01-16T08:47:46;98374.56;;;3.20;69.19
78309;BME280;75657;42.022;21.356;2024-01-16T08:50:12;98385.34;;;3.24;69.03
78309;BME280;75657;42.022;21.356;2024-01-16T08:52:38;98393.50;;;3.22;69.21
78309;BME280;75657;42.022;21.356;2024-01-16T08:55:03;98393.00;;;3.25;68.78
78309;BME280;75657;42.022;21.356;2024-01-16T08:57:29;98395.34;;;3.27;68.71
78309;BME280;75657;42.022;21.356;2024-01-16T08:59:57;98392.75;;;3.32;68.58
78309;BME280;75657;42.022;21.356;2024-01-16T09:02:23;98403.53;;;3.35;67.30
78309;BME280;75657;42.022;21.356;2024-01-16T09:04:49;98406.47;;;3.39;66.66
78309;BME280;75657;42.022;21.356;2024-01-16T09:07:18;98405.16;;;3.47;68.31
78309;BME280;75657;42.022;21.356;2024-01-16T09:09:44;98406.50;;;3.54;67.54
78309;BME280;75657;42.022;21.356;2024-01-16T09:12:09;98406.25;;;3.61;66.06
78309;BME280;75657;42.022;21.356;2024-01-16T09:14:35;98402.59;;;3.67;65.95
78309;BME280;75657;42.022;21.356;2024-01-16T09:17:01;98406.56;;;3.75;64.59
78309;BME280;75657;42.022;21.356;2024-01-16T09:19:26;98407.38;;;3.86;65.27
78309;BME280;75657;42.022;21.356;2024-01-16T09:21:52;98408.47;;;3.95;65.05
78309;BME280;75657;42.022;21.356;2024-01-16T09:24:17;98400.00;;;3.98;63.05
78309;BME280;75657;42.022;21.356;2024-01-16T09:26:44;98397.91;;;4.10;63.40
78309;BME280;75657;42.022;21.356;2024-01-16T09:29:10;98396.34;;;4.20;63.54
78309;BME280;75657;42.022;21.356;2024-01-16T09:31:35;98404.28;;;4.25;63.06
78309;BME280;75657;42.022;21.356;2024-01-16T09:34:02;98401.09;;;4.28;62.49
78309;BME280;75657;42.022;21.356;2024-01-16T09:36:29;98406.63;;;4.31;62.64
78309;BME280;75657;42.022;21.356;2024-01-16T09:38:54;98405.06;;;4.41;62.64
78309;BME280;75657;42.022;21.356;2024-01-16T09:41:19;98403.19;;;4.46;62.14
78309;BME280;75657;42.022;21.356;2024-01-16T09:43:46;98408.47;;;4.51;61.89
78309;BME280;75657;42.022;21.356;2024-01-16T09:46:15;98397.66;;;4.58;61.15
78309;BME280;75657;42.022;21.356;2024-01-16T09:48:41;98406.59;;;4.67;62.49
78309;BME280;75657;42.022;21.356;2024-01-16T09:51:10;98408.44;;;4.72;61.97
78309;BME280;75657;42.022;21.356;2024-01-16T09:53:40;98416.88;;;4.79;61.03
78309;BME280;75657;42.022;21.356;2024-01-16T09:56:09;98407.63;;;4.82;60.99
78309;BME280;75657;42.022;21.356;2024-01-16T09:58:37;98415.28;;;4.88;59.92
78309;BME280;75657;42.022;21.356;2024-01-16T10:01:03;98413.66;;;4.98;59.75
78309;BME280;75657;42.022;21.356;2024-01-16T10:03:30;98415.75;;;5.06;60.43
78309;BME280;75657;42.022;21.356;2024-01-16T10:05:56;98413.88;;;5.11;59.67
78309;BME280;75657;42.022;21.356;2024-01-16T10:08:29;98413.09;;;5.16;59.02
78309;BME280;75657;42.022;21.356;2024-01-16T10:10:55;98412.59;;;5.09;59.61
78309;BME280;75657;42.022;21.356;2024-01-16T10:13:21;98411.22;;;5.17;60.31
78309;BME280;75657;42.022;21.356;2024-01-16T10:15:52;98410.16;;;5.28;60.84
78309;BME280;75657;42.022;21.356;2024-01-16T10:18:23;98408.00;;;5.40;60.93
78309;BME280;75657;42.022;21.356;2024-01-16T10:20:49;98411.13;;;5.47;60.80
78309;BME280;75657;42.022;21.356;2024-01-16T10:23:25;98416.63;;;5.56;60.17
78309;BME280;75657;42.022;21.356;2024-01-16T10:26:07;98406.81;;;5.62;59.04
78309;BME280;75657;42.022;21.356;2024-01-16T10:28:33;98403.34;;;5.72;59.61
78309;BME280;75657;42.022;21.356;2024-01-16T10:31:13;98409.13;;;5.79;58.68
78309;BME280;75657;42.022;21.356;2024-01-16T10:33:58;98404.84;;;5.83;57.77
78309;BME280;75657;42.022;21.356;2024-01-16T10:36:24;98404.84;;;5.83;57.67
78309;BME280;75657;42.022;21.356;2024-01-16T10:38:53;98408.81;;;5.85;56.67
78309;BME280;75657;42.022;21.356;2024-01-16T10:41:27;98404.06;;;5.82;56.43
78309;BME280;75657;42.022;21.356;2024-01-16T10:44:13;98403.56;;;5.80;54.84
78309;BME280;75657;42.022;21.356;2024-01-16T10:46:38;98405.88;;;5.87;55.56
78309;BME280;75657;42.022;21.356;2024-01-16T10:49:04;98399.28;;;5.90;55.13
78309;BME280;75657;42.022;21.356;2024-01-16T10:51:31;98401.38;;;5.98;56.73
78309;BME280;75657;42.022;21.356;2024-01-16T10:54:03;98401.84;;;6.05;56.02
78309;BME280;75657;42.022;21.356;2024-01-16T10:56:32;98407.38;;;6.09;55.96
78309;BME280;75657;42.022;21.356;2024-01-16T10:59:25;98407.09;;;6.10;54.42
78309;BME280;75657;42.022;21.356;2024-01-16T11:01:54;98403.16;;;6.02;55.04
78309;BME280;75657;42.022;21.356;2024-01-16T11:04:21;98399.97;;;6.05;55.40
78309;BME280;75657;42.022;21.356;2024-01-16T11:06:50;98407.88;;;6.11;55.77
78309;BME280;75657;42.022;21.356;2024-01-16T11:09:16;98402.28;;;6.17;55.48
78309;BME280;75657;42.022;21.356;2024-01-16T11:11:46;98412.56;;;6.24;56.04
78309;BME280;75657;42.022;21.356;2024-01-16T11:14:15;98419.94;;;6.22;55.03
78309;BME280;75657;42.022;21.356;2024-01-16T11:16:42;98420.53;;;6.19;54.34
78309;BME280;75657;42.022;21.356;2024-01-16T11:19:11;98426.03;;;6.22;55.03
78309;BME280;75657;42.022;21.356;2024-01-16T11:21:41;98421.25;;;6.24;55.45
78309;BME280;75657;42.022;21.356;2024-01-16T11:24:13;98419.13;;;6.27;53.96
78309;BME280;75657;42.022;21.356;2024-01-16T11:26:41;98417.50;;;6.31;54.41
78309;BME280;75657;42.022;21.356;2024-01-16T11:32:10;98429.03;;;6.45;55.06
78309;BME280;75657;42.022;21.356;2024-01-16T11:34:55;98423.47;;;6.47;55.15
78309;BME280;75657;42.022;21.356;2024-01-16T11:37:48;98420.53;;;6.48;56.14
78309;BME280;75657;42.022;21.356;2024-01-16T11:40:39;98407.06;;;6.45;55.48
78309;BME280;75657;42.022;21.356;2024-01-16T11:46:07;98415.34;;;6.38;55.32
78309;BME280;75657;42.022;21.356;2024-01-16T11:48:35;98406.06;;;6.40;55.29
78309;BME280;75657;42.022;21.356;2024-01-16T11:51:24;98397.59;;;6.43;55.84
78309;BME280;75657;42.022;21.356;2024-01-16T11:53:51;98398.88;;;6.46;55.97
78309;BME280;75657;42.022;21.356;2024-01-16T11:56:35;98391.16;;;6.50;55.80
78309;BME280;75657;42.022;21.356;2024-01-16T12:02:00;98401.75;;;6.50;55.27
78309;BME280;75657;42.022;21.356;2024-01-16T12:04:38;98408.91;;;6.49;55.48
78309;BME280;75657;42.022;21.356;2024-01-16T12:07:04;98414.41;;;6.53;55.70
78309;BME280;75657;42.022;21.356;2024-01-16T12:09:29;98405.44;;;6.54;55.31
78309;BME280;75657;42.022;21.356;2024-01-16T12:12:02;98404.84;;;6.57;55.24
78309;BME280;75657;42.022;21.356;2024-01-16T12:14:29;98400.16;;;6.54;55.15
78309;BME280;75657;42.022;21.356;2024-01-16T12:17:13;98396.69;;;6.53;55.13
78309;BME280;75657;42.022;21.356;2024-01-16T12:19:39;98393.75;;;6.55;54.69
78309;BME280;75657;42.022;21.356;2024-01-16T12:22:16;98400.38;;;6.57;54.67
78309;BME280;75657;42.022;21.356;2024-01-16T12:24:49;98408.81;;;6.59;55.00
78309;BME280;75657;42.022;21.356;2024-01-16T12:27:16;98411.97;;;6.61;55.08
78309;BME280;75657;42.022;21.356;2024-01-16T12:30:04;98416.47;;;6.61;54.92
78309;BME280;75657;42.022;21.356;2024-01-16T12:32:32;98422.00;;;6.65;55.07
78309;BME280;75657;42.022;21.356;2024-01-16T12:34:58;98422.50;;;6.67;54.55
78309;BME280;75657;42.022;21.356;2024-01-16T12:37:23;98418.53;;;6.69;54.61
78309;BME280;75657;42.022;21.356;2024-01-16T12:39:52;98417.16;;;6.72;55.18
78309;BME280;75657;42.022;21.356;2024-01-16T12:42:18;98422.97;;;6.74;55.36
78309;BME280;75657;42.022;21.356;2024-01-16T12:44:45;98417.44;;;6.70;54.47
78309;BME280;75657;42.022;21.356;2024-01-16T12:47:16;98413.75;;;6.71;54.49
78309;BME280;75657;42.022;21.356;2024-01-16T12:49:44;98413.16;;;6.74;54.58
78309;BME280;75657;42.022;21.356;2024-01-16T12:52:24;98421.91;;;6.75;54.55
78309;BME280;75657;42.022;21.356;2024-01-16T12:55:00;98434.31;;;6.74;53.82
78309;BME280;75657;42.022;21.356;2024-01-16T12:57:33;98429.69;;;6.61;52.77
78309;BME280;75657;42.022;21.356;2024-01-16T12:59:59;98433.16;;;6.56;52.67
78309;BME280;75657;42.022;21.356;2024-01-16T13:02:27;98437.41;;;6.57;53.32
78309;BME280;75657;42.022;21.356;2024-01-16T13:05:00;98451.19;;;6.54;52.60
78309;BME280;75657;42.022;21.356;2024-01-16T13:07:28;98448.56;;;6.49;52.75
78309;BME280;75657;42.022;21.356;2024-01-16T13:10:19;98440.63;;;6.49;52.88